Atlanta, Texas
Current Conditions -  °F | °C
As of 5:53 AM on Sunday 23 Nov 2014 (Local Time) from KTXK Reporting Station
Light Rain Light Rain  
Wind Chill: 16°   Ceiling: 600
Heat Index: 16°   Visibility: 7mi
Dew Point: 16°   Wind: 5mph
Humidity: 100%   Direction: 170°S
Pressure: 29.61"   Gusts: NA
Location:  33.12°N, 94.17°W
Report Text: KTXK 231153Z 17004KT 7SM -RA OVC006 16/16 A2961 RMK AO2 RAE04B24 SLP025 P0002 60007 70050 T01610161 10161 20150 56006
Loading
Personal Weather Stations






























Interactive Weather Map New forecast layout! Learn more

10-Day Weather Forecast

Advertisements
Track Severe Weather on mobile